sensor_id;sensor_type;location;lat;lon;timestamp;P1;durP1;ratioP1;P2;durP2;ratioP2
73130;SDS011;64204;13.766;100.702;2023-12-20T00:00:19;9.32;;;4.95;;
73130;SDS011;64204;13.766;100.702;2023-12-20T00:02:46;7.45;;;4.70;;
73130;SDS011;64204;13.766;100.702;2023-12-20T00:05:13;8.88;;;5.47;;
73130;SDS011;64204;13.766;100.702;2023-12-20T00:07:39;9.35;;;5.80;;
73130;SDS011;64204;13.766;100.702;2023-12-20T00:10:06;24.17;;;5.70;;
73130;SDS011;64204;13.766;100.702;2023-12-20T00:12:33;12.70;;;6.25;;
73130;SDS011;64204;13.766;100.702;2023-12-20T00:14:59;18.60;;;5.95;;
73130;SDS011;64204;13.766;100.702;2023-12-20T00:17:26;13.20;;;5.50;;
73130;SDS011;64204;13.766;100.702;2023-12-20T00:19:52;10.50;;;6.10;;
73130;SDS011;64204;13.766;100.702;2023-12-20T00:22:18;11.02;;;6.90;;
73130;SDS011;64204;13.766;100.702;2023-12-20T00:24:45;11.18;;;6.28;;
73130;SDS011;64204;13.766;100.702;2023-12-20T00:27:11;8.38;;;5.15;;
73130;SDS011;64204;13.766;100.702;2023-12-20T00:29:37;6.97;;;4.95;;
73130;SDS011;64204;13.766;100.702;2023-12-20T00:32:04;10.77;;;5.53;;
73130;SDS011;64204;13.766;100.702;2023-12-20T00:34:30;9.98;;;5.93;;
73130;SDS011;64204;13.766;100.702;2023-12-20T00:36:57;9.30;;;5.43;;
73130;SDS011;64204;13.766;100.702;2023-12-20T00:39:23;9.68;;;5.15;;
73130;SDS011;64204;13.766;100.702;2023-12-20T00:41:50;7.63;;;4.78;;
73130;SDS011;64204;13.766;100.702;2023-12-20T00:44:16;10.55;;;6.18;;
73130;SDS011;64204;13.766;100.702;2023-12-20T00:46:43;9.15;;;5.57;;
73130;SDS011;64204;13.766;100.702;2023-12-20T00:49:09;7.72;;;4.57;;
73130;SDS011;64204;13.766;100.702;2023-12-20T00:51:35;12.88;;;4.78;;
73130;SDS011;64204;13.766;100.702;2023-12-20T00:54:01;7.88;;;4.38;;
73130;SDS011;64204;13.766;100.702;2023-12-20T00:56:28;10.20;;;5.47;;
73130;SDS011;64204;13.766;100.702;2023-12-20T00:58:54;13.05;;;5.72;;
73130;SDS011;64204;13.766;100.702;2023-12-20T01:01:21;11.93;;;5.72;;
73130;SDS011;64204;13.766;100.702;2023-12-20T01:03:47;11.32;;;5.63;;
73130;SDS011;64204;13.766;100.702;2023-12-20T01:06:16;7.85;;;4.75;;
73130;SDS011;64204;13.766;100.702;2023-12-20T01:08:43;10.23;;;5.60;;
73130;SDS011;64204;13.766;100.702;2023-12-20T01:11:09;9.07;;;5.10;;
73130;SDS011;64204;13.766;100.702;2023-12-20T01:13:35;7.90;;;5.22;;
73130;SDS011;64204;13.766;100.702;2023-12-20T01:16:02;10.18;;;5.57;;
73130;SDS011;64204;13.766;100.702;2023-12-20T01:18:30;8.02;;;5.20;;
73130;SDS011;64204;13.766;100.702;2023-12-20T01:21:01;8.52;;;4.70;;
73130;SDS011;64204;13.766;100.702;2023-12-20T01:23:31;8.10;;;4.72;;
73130;SDS011;64204;13.766;100.702;2023-12-20T01:25:58;7.72;;;4.68;;
73130;SDS011;64204;13.766;100.702;2023-12-20T01:28:28;11.48;;;6.00;;
73130;SDS011;64204;13.766;100.702;2023-12-20T01:30:55;8.63;;;5.10;;
73130;SDS011;64204;13.766;100.702;2023-12-20T01:33:21;16.75;;;5.18;;
73130;SDS011;64204;13.766;100.702;2023-12-20T01:35:47;7.57;;;4.68;;
73130;SDS011;64204;13.766;100.702;2023-12-20T01:38:13;8.35;;;4.60;;
73130;SDS011;64204;13.766;100.702;2023-12-20T01:40:40;9.35;;;5.82;;
73130;SDS011;64204;13.766;100.702;2023-12-20T01:43:07;11.75;;;6.35;;
73130;SDS011;64204;13.766;100.702;2023-12-20T01:45:35;9.95;;;5.60;;
73130;SDS011;64204;13.766;100.702;2023-12-20T01:48:01;13.15;;;5.63;;
73130;SDS011;64204;13.766;100.702;2023-12-20T01:50:28;8.82;;;5.28;;
73130;SDS011;64204;13.766;100.702;2023-12-20T01:52:55;8.55;;;4.95;;
73130;SDS011;64204;13.766;100.702;2023-12-20T01:55:25;9.55;;;4.43;;
73130;SDS011;64204;13.766;100.702;2023-12-20T01:57:52;7.88;;;5.20;;
73130;SDS011;64204;13.766;100.702;2023-12-20T02:00:19;8.68;;;4.63;;
73130;SDS011;64204;13.766;100.702;2023-12-20T02:02:48;9.13;;;4.72;;
73130;SDS011;64204;13.766;100.702;2023-12-20T02:05:16;9.88;;;5.07;;
73130;SDS011;64204;13.766;100.702;2023-12-20T02:07:43;7.65;;;4.80;;
73130;SDS011;64204;13.766;100.702;2023-12-20T02:10:09;11.25;;;5.22;;
73130;SDS011;64204;13.766;100.702;2023-12-20T02:12:36;9.10;;;5.13;;
73130;SDS011;64204;13.766;100.702;2023-12-20T02:15:03;9.15;;;5.50;;
73130;SDS011;64204;13.766;100.702;2023-12-20T02:17:31;8.05;;;5.57;;
73130;SDS011;64204;13.766;100.702;2023-12-20T02:19:57;9.35;;;4.63;;
73130;SDS011;64204;13.766;100.702;2023-12-20T02:22:24;9.00;;;4.93;;
73130;SDS011;64204;13.766;100.702;2023-12-20T02:24:50;7.97;;;4.97;;
73130;SDS011;64204;13.766;100.702;2023-12-20T02:27:17;7.88;;;4.45;;
73130;SDS011;64204;13.766;100.702;2023-12-20T02:29:44;13.57;;;5.57;;
73130;SDS011;64204;13.766;100.702;2023-12-20T02:34:59;6.05;;;4.05;;
73130;SDS011;64204;13.766;100.702;2023-12-20T02:37:26;6.38;;;4.00;;
73130;SDS011;64204;13.766;100.702;2023-12-20T02:39:52;6.43;;;3.75;;
73130;SDS011;64204;13.766;100.702;2023-12-20T02:42:18;6.78;;;4.13;;
73130;SDS011;64204;13.766;100.702;2023-12-20T02:44:44;11.57;;;4.45;;
73130;SDS011;64204;13.766;100.702;2023-12-20T02:47:11;5.53;;;4.05;;
73130;SDS011;64204;13.766;100.702;2023-12-20T02:49:37;8.25;;;3.92;;
73130;SDS011;64204;13.766;100.702;2023-12-20T02:52:04;7.03;;;4.22;;
73130;SDS011;64204;13.766;100.702;2023-12-20T02:54:30;6.22;;;3.22;;
73130;SDS011;64204;13.766;100.702;2023-12-20T02:56:56;7.55;;;4.18;;
73130;SDS011;64204;13.766;100.702;2023-12-20T02:59:23;5.93;;;3.58;;
73130;SDS011;64204;13.766;100.702;2023-12-20T03:01:55;6.40;;;3.70;;
73130;SDS011;64204;13.766;100.702;2023-12-20T03:04:21;5.15;;;3.35;;
73130;SDS011;64204;13.766;100.702;2023-12-20T03:06:48;6.20;;;3.70;;
73130;SDS011;64204;13.766;100.702;2023-12-20T03:09:15;9.80;;;3.90;;
73130;SDS011;64204;13.766;100.702;2023-12-20T03:11:42;8.40;;;3.80;;
73130;SDS011;64204;13.766;100.702;2023-12-20T03:14:11;8.40;;;4.10;;
73130;SDS011;64204;13.766;100.702;2023-12-20T03:16:37;10.93;;;4.35;;
73130;SDS011;64204;13.766;100.702;2023-12-20T03:19:06;5.72;;;3.55;;
73130;SDS011;64204;13.766;100.702;2023-12-20T03:21:33;4.63;;;3.22;;
73130;SDS011;64204;13.766;100.702;2023-12-20T03:23:59;6.78;;;3.88;;
73130;SDS011;64204;13.766;100.702;2023-12-20T03:26:26;5.88;;;3.05;;
73130;SDS011;64204;13.766;100.702;2023-12-20T03:28:52;8.10;;;4.00;;
73130;SDS011;64204;13.766;100.702;2023-12-20T03:31:19;6.85;;;3.83;;
73130;SDS011;64204;13.766;100.702;2023-12-20T03:33:46;6.38;;;3.30;;
73130;SDS011;64204;13.766;100.702;2023-12-20T03:36:12;7.55;;;3.80;;
73130;SDS011;64204;13.766;100.702;2023-12-20T03:38:42;9.25;;;4.18;;
73130;SDS011;64204;13.766;100.702;2023-12-20T03:41:08;7.50;;;3.70;;
73130;SDS011;64204;13.766;100.702;2023-12-20T03:43:35;7.00;;;3.78;;
73130;SDS011;64204;13.766;100.702;2023-12-20T03:46:01;8.02;;;3.78;;
73130;SDS011;64204;13.766;100.702;2023-12-20T03:48:31;5.75;;;3.53;;
73130;SDS011;64204;13.766;100.702;2023-12-20T03:50:57;8.00;;;3.67;;
73130;SDS011;64204;13.766;100.702;2023-12-20T03:53:24;7.00;;;4.03;;
73130;SDS011;64204;13.766;100.702;2023-12-20T03:55:50;6.82;;;4.70;;
73130;SDS011;64204;13.766;100.702;2023-12-20T03:58:16;6.93;;;3.88;;
73130;SDS011;64204;13.766;100.702;2023-12-20T04:00:43;10.13;;;4.28;;
73130;SDS011;64204;13.766;100.702;2023-12-20T04:03:09;7.78;;;4.35;;
73130;SDS011;64204;13.766;100.702;2023-12-20T04:05:39;7.45;;;4.15;;
73130;SDS011;64204;13.766;100.702;2023-12-20T04:08:07;9.25;;;4.15;;
73130;SDS011;64204;13.766;100.702;2023-12-20T04:10:33;4.95;;;3.55;;
73130;SDS011;64204;13.766;100.702;2023-12-20T04:13:00;7.65;;;3.33;;
73130;SDS011;64204;13.766;100.702;2023-12-20T04:15:26;6.65;;;4.28;;
73130;SDS011;64204;13.766;100.702;2023-12-20T04:17:53;10.57;;;4.50;;
73130;SDS011;64204;13.766;100.702;2023-12-20T04:20:19;7.97;;;4.53;;
73130;SDS011;64204;13.766;100.702;2023-12-20T04:22:45;7.07;;;4.40;;
73130;SDS011;64204;13.766;100.702;2023-12-20T04:25:12;6.72;;;4.38;;
73130;SDS011;64204;13.766;100.702;2023-12-20T04:27:38;7.15;;;4.22;;
73130;SDS011;64204;13.766;100.702;2023-12-20T04:30:06;7.38;;;4.13;;
73130;SDS011;64204;13.766;100.702;2023-12-20T04:32:34;4.70;;;3.20;;
73130;SDS011;64204;13.766;100.702;2023-12-20T04:35:00;5.72;;;3.45;;
73130;SDS011;64204;13.766;100.702;2023-12-20T04:37:27;4.80;;;3.67;;
73130;SDS011;64204;13.766;100.702;2023-12-20T04:39:53;6.70;;;3.72;;
73130;SDS011;64204;13.766;100.702;2023-12-20T04:42:20;6.47;;;3.55;;
73130;SDS011;64204;13.766;100.702;2023-12-20T04:44:47;6.35;;;3.90;;
73130;SDS011;64204;13.766;100.702;2023-12-20T04:47:16;6.35;;;4.13;;
73130;SDS011;64204;13.766;100.702;2023-12-20T04:49:43;7.68;;;4.22;;
73130;SDS011;64204;13.766;100.702;2023-12-20T04:52:09;7.63;;;3.42;;
73130;SDS011;64204;13.766;100.702;2023-12-20T04:54:36;5.75;;;4.38;;
73130;SDS011;64204;13.766;100.702;2023-12-20T04:57:02;5.45;;;3.60;;
73130;SDS011;64204;13.766;100.702;2023-12-20T04:59:29;8.63;;;4.10;;
73130;SDS011;64204;13.766;100.702;2023-12-20T05:01:56;8.57;;;3.80;;
73130;SDS011;64204;13.766;100.702;2023-12-20T05:04:23;6.03;;;3.22;;
73130;SDS011;64204;13.766;100.702;2023-12-20T05:06:49;4.93;;;2.92;;
73130;SDS011;64204;13.766;100.702;2023-12-20T05:09:15;6.20;;;3.63;;
73130;SDS011;64204;13.766;100.702;2023-12-20T05:11:43;5.60;;;3.50;;
73130;SDS011;64204;13.766;100.702;2023-12-20T05:14:09;6.07;;;3.58;;
73130;SDS011;64204;13.766;100.702;2023-12-20T05:16:35;6.65;;;4.00;;
73130;SDS011;64204;13.766;100.702;2023-12-20T05:19:02;11.32;;;3.75;;
73130;SDS011;64204;13.766;100.702;2023-12-20T05:21:32;8.38;;;4.38;;
73130;SDS011;64204;13.766;100.702;2023-12-20T05:23:58;8.02;;;3.78;;
73130;SDS011;64204;13.766;100.702;2023-12-20T05:26:26;4.72;;;3.95;;
73130;SDS011;64204;13.766;100.702;2023-12-20T05:28:58;3.45;;;2.83;;
73130;SDS011;64204;13.766;100.702;2023-12-20T05:31:25;7.88;;;2.83;;
73130;SDS011;64204;13.766;100.702;2023-12-20T05:33:53;5.70;;;3.55;;
73130;SDS011;64204;13.766;100.702;2023-12-20T05:36:19;5.45;;;3.10;;
73130;SDS011;64204;13.766;100.702;2023-12-20T05:38:45;5.13;;;3.03;;
73130;SDS011;64204;13.766;100.702;2023-12-20T05:41:12;5.75;;;3.00;;
73130;SDS011;64204;13.766;100.702;2023-12-20T05:43:39;6.40;;;3.50;;
73130;SDS011;64204;13.766;100.702;2023-12-20T05:46:05;6.03;;;3.00;;
73130;SDS011;64204;13.766;100.702;2023-12-20T05:48:31;5.15;;;3.22;;
73130;SDS011;64204;13.766;100.702;2023-12-20T05:50:58;7.97;;;3.70;;
73130;SDS011;64204;13.766;100.702;2023-12-20T05:53:24;4.10;;;2.92;;
73130;SDS011;64204;13.766;100.702;2023-12-20T05:55:50;4.57;;;2.63;;
73130;SDS011;64204;13.766;100.702;2023-12-20T05:58:17;4.45;;;2.45;;
73130;SDS011;64204;13.766;100.702;2023-12-20T06:00:43;6.38;;;2.55;;
73130;SDS011;64204;13.766;100.702;2023-12-20T06:03:09;4.80;;;2.30;;
73130;SDS011;64204;13.766;100.702;2023-12-20T06:05:39;3.83;;;2.92;;
73130;SDS011;64204;13.766;100.702;2023-12-20T06:08:05;4.50;;;2.72;;
73130;SDS011;64204;13.766;100.702;2023-12-20T06:10:31;6.72;;;2.88;;
73130;SDS011;64204;13.766;100.702;2023-12-20T06:12:58;3.75;;;2.30;;
73130;SDS011;64204;13.766;100.702;2023-12-20T06:15:26;4.25;;;2.75;;
73130;SDS011;64204;13.766;100.702;2023-12-20T06:17:52;9.05;;;2.55;;
73130;SDS011;64204;13.766;100.702;2023-12-20T06:20:18;4.60;;;2.47;;
73130;SDS011;64204;13.766;100.702;2023-12-20T06:22:45;7.25;;;2.45;;
73130;SDS011;64204;13.766;100.702;2023-12-20T06:25:11;2.95;;;2.15;;
73130;SDS011;64204;13.766;100.702;2023-12-20T06:27:37;2.47;;;1.67;;
73130;SDS011;64204;13.766;100.702;2023-12-20T06:30:04;3.17;;;2.00;;
73130;SDS011;64204;13.766;100.702;2023-12-20T06:32:31;4.05;;;2.10;;
73130;SDS011;64204;13.766;100.702;2023-12-20T06:34:57;3.30;;;2.42;;
73130;SDS011;64204;13.766;100.702;2023-12-20T06:37:23;3.03;;;2.03;;
73130;SDS011;64204;13.766;100.702;2023-12-20T06:39:50;3.17;;;2.28;;
73130;SDS011;64204;13.766;100.702;2023-12-20T06:42:16;8.70;;;3.33;;
73130;SDS011;64204;13.766;100.702;2023-12-20T06:44:45;23.35;;;3.17;;
73130;SDS011;64204;13.766;100.702;2023-12-20T06:47:12;4.20;;;2.40;;
73130;SDS011;64204;13.766;100.702;2023-12-20T06:49:39;5.10;;;2.65;;
73130;SDS011;64204;13.766;100.702;2023-12-20T06:52:06;3.35;;;2.72;;
73130;SDS011;64204;13.766;100.702;2023-12-20T06:54:32;2.47;;;2.03;;
73130;SDS011;64204;13.766;100.702;2023-12-20T06:57:04;4.82;;;2.38;;
73130;SDS011;64204;13.766;100.702;2023-12-20T06:59:31;3.15;;;2.10;;
73130;SDS011;64204;13.766;100.702;2023-12-20T07:01:57;2.65;;;2.05;;
73130;SDS011;64204;13.766;100.702;2023-12-20T07:04:24;3.10;;;2.00;;
73130;SDS011;64204;13.766;100.702;2023-12-20T07:06:50;3.33;;;1.75;;
73130;SDS011;64204;13.766;100.702;2023-12-20T07:09:22;2.70;;;1.98;;
73130;SDS011;64204;13.766;100.702;2023-12-20T07:11:49;4.78;;;2.38;;
73130;SDS011;64204;13.766;100.702;2023-12-20T07:14:15;2.80;;;2.05;;
73130;SDS011;64204;13.766;100.702;2023-12-20T07:16:41;4.75;;;2.13;;
73130;SDS011;64204;13.766;100.702;2023-12-20T07:19:08;5.25;;;2.00;;
73130;SDS011;64204;13.766;100.702;2023-12-20T07:21:34;2.70;;;1.95;;
73130;SDS011;64204;13.766;100.702;2023-12-20T07:24:00;4.38;;;2.30;;
73130;SDS011;64204;13.766;100.702;2023-12-20T07:26:27;3.47;;;1.80;;
73130;SDS011;64204;13.766;100.702;2023-12-20T07:28:53;6.07;;;2.60;;
73130;SDS011;64204;13.766;100.702;2023-12-20T07:31:19;3.60;;;2.60;;
73130;SDS011;64204;13.766;100.702;2023-12-20T07:33:46;3.72;;;2.20;;
73130;SDS011;64204;13.766;100.702;2023-12-20T07:36:12;2.92;;;1.50;;
73130;SDS011;64204;13.766;100.702;2023-12-20T07:38:50;5.07;;;3.08;;
73130;SDS011;64204;13.766;100.702;2023-12-20T07:41:17;5.57;;;2.20;;
73130;SDS011;64204;13.766;100.702;2023-12-20T07:43:46;2.85;;;1.80;;
73130;SDS011;64204;13.766;100.702;2023-12-20T07:46:12;1.80;;;1.60;;
73130;SDS011;64204;13.766;100.702;2023-12-20T07:48:39;3.58;;;2.05;;
73130;SDS011;64204;13.766;100.702;2023-12-20T07:51:09;6.03;;;2.30;;
73130;SDS011;64204;13.766;100.702;2023-12-20T07:53:35;2.67;;;1.95;;
73130;SDS011;64204;13.766;100.702;2023-12-20T07:56:04;3.70;;;1.60;;
73130;SDS011;64204;13.766;100.702;2023-12-20T07:58:40;4.03;;;2.25;;
73130;SDS011;64204;13.766;100.702;2023-12-20T08:01:30;2.75;;;1.70;;
73130;SDS011;64204;13.766;100.702;2023-12-20T08:03:59;3.33;;;1.92;;
73130;SDS011;64204;13.766;100.702;2023-12-20T08:06:31;2.40;;;1.75;;
73130;SDS011;64204;13.766;100.702;2023-12-20T08:09:00;3.97;;;2.17;;
73130;SDS011;64204;13.766;100.702;2023-12-20T08:11:27;2.28;;;1.80;;
73130;SDS011;64204;13.766;100.702;2023-12-20T08:13:57;4.50;;;1.90;;
73130;SDS011;64204;13.766;100.702;2023-12-20T08:16:23;2.70;;;1.65;;
73130;SDS011;64204;13.766;100.702;2023-12-20T08:18:53;4.50;;;1.83;;
73130;SDS011;64204;13.766;100.702;2023-12-20T08:21:19;2.55;;;1.70;;
73130;SDS011;64204;13.766;100.702;2023-12-20T08:23:47;3.17;;;1.70;;
73130;SDS011;64204;13.766;100.702;2023-12-20T08:26:19;2.40;;;1.70;;
73130;SDS011;64204;13.766;100.702;2023-12-20T08:28:49;5.80;;;1.90;;
73130;SDS011;64204;13.766;100.702;2023-12-20T08:31:16;3.50;;;1.90;;
73130;SDS011;64204;13.766;100.702;2023-12-20T08:33:43;2.25;;;1.60;;
73130;SDS011;64204;13.766;100.702;2023-12-20T08:36:11;2.40;;;1.80;;
73130;SDS011;64204;13.766;100.702;2023-12-20T08:41:17;2.55;;;1.70;;
73130;SDS011;64204;13.766;100.702;2023-12-20T08:43:47;4.60;;;2.08;;
73130;SDS011;64204;13.766;100.702;2023-12-20T08:49:42;5.35;;;2.22;;
73130;SDS011;64204;13.766;100.702;2023-12-20T08:52:24;5.53;;;1.88;;
73130;SDS011;64204;13.766;100.702;2023-12-20T08:55:10;2.83;;;2.35;;
73130;SDS011;64204;13.766;100.702;2023-12-20T08:57:38;3.28;;;2.25;;
73130;SDS011;64204;13.766;100.702;2023-12-20T09:00:24;3.90;;;2.50;;
73130;SDS011;64204;13.766;100.702;2023-12-20T09:02:55;5.57;;;2.22;;
73130;SDS011;64204;13.766;100.702;2023-12-20T09:05:30;3.33;;;2.03;;
73130;SDS011;64204;13.766;100.702;2023-12-20T09:07:57;3.05;;;1.90;;
73130;SDS011;64204;13.766;100.702;2023-12-20T09:10:23;4.75;;;2.38;;
73130;SDS011;64204;13.766;100.702;2023-12-20T09:12:53;4.05;;;2.10;;
73130;SDS011;64204;13.766;100.702;2023-12-20T09:15:29;3.25;;;2.22;;
73130;SDS011;64204;13.766;100.702;2023-12-20T09:17:59;5.25;;;2.10;;
73130;SDS011;64204;13.766;100.702;2023-12-20T09:20:26;3.28;;;1.90;;
73130;SDS011;64204;13.766;100.702;2023-12-20T09:22:55;3.30;;;2.28;;
73130;SDS011;64204;13.766;100.702;2023-12-20T09:25:31;4.07;;;1.92;;
73130;SDS011;64204;13.766;100.702;2023-12-20T09:30:48;4.00;;;1.70;;
73130;SDS011;64204;13.766;100.702;2023-12-20T09:33:15;3.08;;;1.85;;
73130;SDS011;64204;13.766;100.702;2023-12-20T09:35:42;5.15;;;1.67;;
73130;SDS011;64204;13.766;100.702;2023-12-20T09:38:09;3.72;;;2.03;;
73130;SDS011;64204;13.766;100.702;2023-12-20T09:40:36;8.35;;;1.67;;
73130;SDS011;64204;13.766;100.702;2023-12-20T09:43:09;4.40;;;1.98;;
73130;SDS011;64204;13.766;100.702;2023-12-20T09:45:38;3.60;;;1.90;;
73130;SDS011;64204;13.766;100.702;2023-12-20T09:48:06;3.38;;;1.90;;
73130;SDS011;64204;13.766;100.702;2023-12-20T09:50:33;3.05;;;1.63;;
73130;SDS011;64204;13.766;100.702;2023-12-20T09:53:00;2.00;;;1.60;;
73130;SDS011;64204;13.766;100.702;2023-12-20T09:55:30;3.53;;;2.25;;
73130;SDS011;64204;13.766;100.702;2023-12-20T09:57:57;5.95;;;2.05;;
73130;SDS011;64204;13.766;100.702;2023-12-20T10:00:24;4.85;;;2.00;;
73130;SDS011;64204;13.766;100.702;2023-12-20T10:02:57;6.55;;;2.25;;
73130;SDS011;64204;13.766;100.702;2023-12-20T10:05:31;3.67;;;2.10;;
73130;SDS011;64204;13.766;100.702;2023-12-20T10:07:58;2.92;;;2.22;;
73130;SDS011;64204;13.766;100.702;2023-12-20T10:10:26;5.63;;;2.00;;
73130;SDS011;64204;13.766;100.702;2023-12-20T10:13:02;3.63;;;2.25;;
73130;SDS011;64204;13.766;100.702;2023-12-20T10:15:36;3.20;;;2.03;;
73130;SDS011;64204;13.766;100.702;2023-12-20T10:18:03;6.25;;;2.95;;
73130;SDS011;64204;13.766;100.702;2023-12-20T10:20:33;4.22;;;2.53;;
73130;SDS011;64204;13.766;100.702;2023-12-20T10:23:00;4.57;;;3.15;;
73130;SDS011;64204;13.766;100.702;2023-12-20T10:25:27;6.82;;;3.40;;
73130;SDS011;64204;13.766;100.702;2023-12-20T10:28:15;4.57;;;2.65;;
73130;SDS011;64204;13.766;100.702;2023-12-20T10:30:48;5.10;;;3.17;;
73130;SDS011;64204;13.766;100.702;2023-12-20T10:33:23;6.00;;;3.55;;
73130;SDS011;64204;13.766;100.702;2023-12-20T10:35:51;6.78;;;3.95;;
73130;SDS011;64204;13.766;100.702;2023-12-20T10:38:18;5.32;;;3.40;;
73130;SDS011;64204;13.766;100.702;2023-12-20T10:40:47;6.70;;;3.95;;
73130;SDS011;64204;13.766;100.702;2023-12-20T10:43:13;4.72;;;3.67;;
73130;SDS011;64204;13.766;100.702;2023-12-20T10:45:44;6.90;;;4.00;;
73130;SDS011;64204;13.766;100.702;2023-12-20T10:48:10;7.43;;;4.35;;
73130;SDS011;64204;13.766;100.702;2023-12-20T10:50:37;7.40;;;3.72;;
73130;SDS011;64204;13.766;100.702;2023-12-20T10:53:05;5.38;;;2.97;;
73130;SDS011;64204;13.766;100.702;2023-12-20T10:55:32;8.27;;;3.72;;
73130;SDS011;64204;13.766;100.702;2023-12-20T10:58:17;6.95;;;3.60;;
73130;SDS011;64204;13.766;100.702;2023-12-20T11:00:45;4.72;;;2.47;;
73130;SDS011;64204;13.766;100.702;2023-12-20T11:03:13;4.22;;;2.70;;
73130;SDS011;64204;13.766;100.702;2023-12-20T11:05:55;7.10;;;3.28;;
73130;SDS011;64204;13.766;100.702;2023-12-20T11:11:35;6.70;;;2.92;;
73130;SDS011;64204;13.766;100.702;2023-12-20T11:22:21;6.43;;;2.65;;
73130;SDS011;64204;13.766;100.702;2023-12-20T11:30:04;5.25;;;2.80;;
73130;SDS011;64204;13.766;100.702;2023-12-20T11:32:35;6.60;;;2.40;;
73130;SDS011;64204;13.766;100.702;2023-12-20T11:37:36;9.07;;;3.10;;
73130;SDS011;64204;13.766;100.702;2023-12-20T11:40:06;6.95;;;2.97;;
73130;SDS011;64204;13.766;100.702;2023-12-20T11:42:40;3.65;;;2.30;;
73130;SDS011;64204;13.766;100.702;2023-12-20T11:45:28;7.18;;;2.35;;
73130;SDS011;64204;13.766;100.702;2023-12-20T11:47:53;7.03;;;2.70;;
73130;SDS011;64204;13.766;100.702;2023-12-20T11:50:20;5.03;;;1.90;;
73130;SDS011;64204;13.766;100.702;2023-12-20T11:52:48;9.60;;;2.60;;
73130;SDS011;64204;13.766;100.702;2023-12-20T11:55:15;5.60;;;2.25;;
73130;SDS011;64204;13.766;100.702;2023-12-20T11:57:41;4.40;;;2.92;;
73130;SDS011;64204;13.766;100.702;2023-12-20T12:00:13;6.65;;;3.17;;
73130;SDS011;64204;13.766;100.702;2023-12-20T12:02:40;3.40;;;2.05;;
73130;SDS011;64204;13.766;100.702;2023-12-20T12:05:07;6.93;;;4.05;;
73130;SDS011;64204;13.766;100.702;2023-12-20T12:07:34;5.38;;;3.03;;
73130;SDS011;64204;13.766;100.702;2023-12-20T12:10:01;5.28;;;3.03;;
73130;SDS011;64204;13.766;100.702;2023-12-20T12:12:29;5.68;;;3.63;;
73130;SDS011;64204;13.766;100.702;2023-12-20T12:14:56;10.18;;;5.22;;
73130;SDS011;64204;13.766;100.702;2023-12-20T12:17:23;10.63;;;5.32;;
73130;SDS011;64204;13.766;100.702;2023-12-20T12:19:50;12.25;;;5.68;;
73130;SDS011;64204;13.766;100.702;2023-12-20T12:22:16;8.18;;;4.68;;
73130;SDS011;64204;13.766;100.702;2023-12-20T12:24:46;8.45;;;4.78;;
73130;SDS011;64204;13.766;100.702;2023-12-20T12:27:13;14.02;;;5.22;;
73130;SDS011;64204;13.766;100.702;2023-12-20T12:29:39;8.20;;;4.70;;
73130;SDS011;64204;13.766;100.702;2023-12-20T12:32:06;10.02;;;5.30;;
73130;SDS011;64204;13.766;100.702;2023-12-20T12:34:34;14.48;;;5.38;;
73130;SDS011;64204;13.766;100.702;2023-12-20T12:37:03;7.72;;;4.85;;
73130;SDS011;64204;13.766;100.702;2023-12-20T12:39:30;8.90;;;4.28;;
73130;SDS011;64204;13.766;100.702;2023-12-20T12:41:56;9.13;;;4.30;;
73130;SDS011;64204;13.766;100.702;2023-12-20T12:44:23;11.38;;;4.45;;
73130;SDS011;64204;13.766;100.702;2023-12-20T12:46:50;7.45;;;4.35;;
73130;SDS011;64204;13.766;100.702;2023-12-20T12:49:19;8.82;;;4.22;;
73130;SDS011;64204;13.766;100.702;2023-12-20T12:54:13;7.60;;;4.47;;
73130;SDS011;64204;13.766;100.702;2023-12-20T12:56:41;7.10;;;4.18;;
73130;SDS011;64204;13.766;100.702;2023-12-20T12:59:08;7.68;;;3.88;;
73130;SDS011;64204;13.766;100.702;2023-12-20T13:01:35;8.02;;;4.35;;
73130;SDS011;64204;13.766;100.702;2023-12-20T13:04:01;9.43;;;4.00;;
73130;SDS011;64204;13.766;100.702;2023-12-20T13:06:29;6.68;;;4.15;;
73130;SDS011;64204;13.766;100.702;2023-12-20T13:08:55;7.65;;;4.30;;
73130;SDS011;64204;13.766;100.702;2023-12-20T13:11:22;10.70;;;4.60;;
73130;SDS011;64204;13.766;100.702;2023-12-20T13:13:51;8.25;;;4.25;;
73130;SDS011;64204;13.766;100.702;2023-12-20T13:16:17;8.85;;;3.58;;
73130;SDS011;64204;13.766;100.702;2023-12-20T13:18:44;9.85;;;4.40;;
73130;SDS011;64204;13.766;100.702;2023-12-20T13:21:10;6.70;;;3.40;;
73130;SDS011;64204;13.766;100.702;2023-12-20T13:23:37;6.95;;;3.47;;
73130;SDS011;64204;13.766;100.702;2023-12-20T13:26:03;9.55;;;5.13;;
73130;SDS011;64204;13.766;100.702;2023-12-20T13:28:33;7.00;;;3.63;;
73130;SDS011;64204;13.766;100.702;2023-12-20T13:30:59;6.72;;;3.60;;
73130;SDS011;64204;13.766;100.702;2023-12-20T13:33:48;11.90;;;4.88;;
73130;SDS011;64204;13.766;100.702;2023-12-20T13:39:49;7.75;;;3.80;;
73130;SDS011;64204;13.766;100.702;2023-12-20T13:49:18;6.03;;;3.05;;
73130;SDS011;64204;13.766;100.702;2023-12-20T13:51:57;7.60;;;3.05;;
73130;SDS011;64204;13.766;100.702;2023-12-20T13:54:41;5.38;;;2.72;;
73130;SDS011;64204;13.766;100.702;2023-12-20T13:57:38;5.72;;;3.58;;
73130;SDS011;64204;13.766;100.702;2023-12-20T14:00:13;5.80;;;3.40;;
73130;SDS011;64204;13.766;100.702;2023-12-20T14:02:41;9.13;;;3.45;;
73130;SDS011;64204;13.766;100.702;2023-12-20T14:05:08;6.13;;;3.78;;
73130;SDS011;64204;13.766;100.702;2023-12-20T14:07:35;7.47;;;3.88;;
73130;SDS011;64204;13.766;100.702;2023-12-20T14:10:05;7.63;;;3.72;;
73130;SDS011;64204;13.766;100.702;2023-12-20T14:12:41;5.35;;;3.08;;
73130;SDS011;64204;13.766;100.702;2023-12-20T14:15:07;6.32;;;3.10;;
73130;SDS011;64204;13.766;100.702;2023-12-20T14:17:38;5.97;;;3.20;;
73130;SDS011;64204;13.766;100.702;2023-12-20T14:20:08;6.20;;;3.03;;
73130;SDS011;64204;13.766;100.702;2023-12-20T14:22:37;4.63;;;2.80;;
73130;SDS011;64204;13.766;100.702;2023-12-20T14:25:12;5.78;;;3.08;;
73130;SDS011;64204;13.766;100.702;2023-12-20T14:27:42;8.45;;;3.72;;
73130;SDS011;64204;13.766;100.702;2023-12-20T14:30:12;6.63;;;3.42;;
73130;SDS011;64204;13.766;100.702;2023-12-20T14:32:49;5.80;;;3.08;;
73130;SDS011;64204;13.766;100.702;2023-12-20T14:35:19;5.63;;;3.25;;
73130;SDS011;64204;13.766;100.702;2023-12-20T14:37:46;6.10;;;3.20;;
73130;SDS011;64204;13.766;100.702;2023-12-20T14:40:21;5.65;;;2.55;;
73130;SDS011;64204;13.766;100.702;2023-12-20T14:42:48;6.35;;;2.67;;
73130;SDS011;64204;13.766;100.702;2023-12-20T14:45:17;6.95;;;2.70;;
73130;SDS011;64204;13.766;100.702;2023-12-20T14:47:54;6.97;;;3.13;;
73130;SDS011;64204;13.766;100.702;2023-12-20T14:50:21;8.23;;;3.55;;
73130;SDS011;64204;13.766;100.702;2023-12-20T14:52:47;8.65;;;3.45;;
73130;SDS011;64204;13.766;100.702;2023-12-20T14:55:13;7.28;;;3.25;;
73130;SDS011;64204;13.766;100.702;2023-12-20T14:57:40;8.48;;;3.78;;
73130;SDS011;64204;13.766;100.702;2023-12-20T15:00:07;6.15;;;3.30;;
73130;SDS011;64204;13.766;100.702;2023-12-20T15:02:40;8.25;;;3.35;;
73130;SDS011;64204;13.766;100.702;2023-12-20T15:05:09;8.20;;;3.75;;
73130;SDS011;64204;13.766;100.702;2023-12-20T15:08:10;5.88;;;3.25;;
73130;SDS011;64204;13.766;100.702;2023-12-20T15:10:46;5.45;;;3.08;;